Time;durP1;ratioP1;P1;durP2;ratioP2;P2;SDS_P1;SDS_P2;PMS_P1;PMS_P2;Temp;Humidity;BMP_temperature;BMP_pressure;BME280_temperature;BME280_humidity;BME280_pressure;Samples;Min_cycle;Max_cycle;Signal;HPM_P1;HPM_P2
2022/08/20 00:02:07;;;;;;;12.20;9.10;;;;;;;19.82;100.00;100389.59;5014364;28;20205;-70
2022/08/20 00:04:34;;;;;;;14.63;9.30;;;;;;;19.85;100.00;100397.34;5013509;28;20227;-72
2022/08/20 00:07:00;;;;;;;14.87;9.97;;;;;;;19.81;100.00;100396.69;5016835;28;20562;-72
2022/08/20 00:09:28;;;;;;;17.63;10.00;;;;;;;19.76;100.00;100390.88;5015580;28;20214;-72
2022/08/20 00:11:55;;;;;;;12.73;9.03;;;;;;;19.78;100.00;100386.31;5032632;28;20214;-71
2022/08/20 00:14:21;;;;;;;16.03;10.13;;;;;;;19.78;100.00;100390.78;5022209;28;20231;-70
2022/08/20 00:16:48;;;;;;;16.10;9.80;;;;;;;19.78;100.00;100390.78;5022625;28;20211;-70
2022/08/20 00:19:14;;;;;;;16.67;9.87;;;;;;;19.77;100.00;100389.94;5019583;28;20291;-70
2022/08/20 00:21:40;;;;;;;15.77;10.50;;;;;;;19.76;100.00;100403.25;5020085;28;20201;-71
2022/08/20 00:24:07;;;;;;;15.03;10.37;;;;;;;19.75;100.00;100399.78;5001139;28;20228;-70
2022/08/20 00:26:34;;;;;;;15.93;10.70;;;;;;;19.75;100.00;100405.06;5010491;28;20215;-72
2022/08/20 00:29:01;;;;;;;18.23;10.57;;;;;;;19.76;100.00;100397.97;5012035;28;20197;-71
2022/08/20 00:31:28;;;;;;;15.53;9.70;;;;;;;19.75;100.00;100396.25;5013980;28;20212;-71
2022/08/20 00:33:55;;;;;;;15.90;10.63;;;;;;;19.73;100.00;100398.97;5010715;28;20239;-70
2022/08/20 00:36:23;;;;;;;15.67;10.47;;;;;;;19.73;100.00;100396.34;5015770;28;20236;-70
2022/08/20 00:38:50;;;;;;;16.67;10.63;;;;;;;19.70;100.00;100393.91;5020001;28;20267;-69
2022/08/20 00:41:21;;;;;;;18.60;11.43;;;;;;;19.68;100.00;100385.22;5009834;28;20755;-72
2022/08/20 00:43:51;;;;;;;16.63;10.23;;;;;;;19.70;100.00;100388.63;5036157;22;20622;-73
2022/08/20 00:46:22;;;;;;;18.73;11.40;;;;;;;19.70;100.00;100395.69;5026913;28;20218;-73
2022/08/20 00:48:51;;;;;;;15.63;10.17;;;;;;;19.66;100.00;100380.06;5028550;28;20742;-73
2022/08/20 00:51:24;;;;;;;16.27;10.97;;;;;;;19.66;100.00;100382.72;5028114;28;20223;-73
2022/08/20 00:53:51;;;;;;;17.90;11.17;;;;;;;19.63;100.00;100377.63;5018193;28;20307;-72
2022/08/20 00:56:19;;;;;;;18.10;11.20;;;;;;;19.61;100.00;100378.66;5020427;28;20661;-72
2022/08/20 00:58:46;;;;;;;16.87;10.80;;;;;;;19.57;100.00;100370.09;5022827;28;20297;-72
2022/08/20 01:01:14;;;;;;;18.43;11.10;;;;;;;19.53;100.00;100371.25;5016217;28;20210;-73
2022/08/20 01:03:41;;;;;;;20.10;11.73;;;;;;;19.50;100.00;100368.81;5030543;28;20683;-72
2022/08/20 01:06:10;;;;;;;16.90;10.63;;;;;;;19.50;100.00;100366.16;5028894;28;20261;-72
2022/08/20 01:08:38;;;;;;;19.67;12.03;;;;;;;19.49;100.00;100367.97;5021926;28;20219;-72
2022/08/20 01:11:11;;;;;;;17.43;10.80;;;;;;;19.44;100.00;100363.97;5026798;28;20286;-72
2022/08/20 01:13:38;;;;;;;13.17;9.43;;;;;;;19.47;100.00;100371.66;5010109;28;20259;-72
2022/08/20 01:16:13;;;;;;;14.50;10.23;;;;;;;19.45;100.00;100371.78;5021212;28;20832;-72
2022/08/20 01:18:41;;;;;;;18.57;10.10;;;;;;;19.43;100.00;100376.31;5023695;28;20203;-73
2022/08/20 01:21:08;;;;;;;16.67;10.90;;;;;;;19.44;100.00;100371.88;5015992;28;20199;-72
2022/08/20 01:23:41;;;;;;;18.60;11.37;;;;;;;19.39;100.00;100385.41;5018452;28;20220;-72
2022/08/20 01:26:11;;;;;;;17.30;11.03;;;;;;;19.41;100.00;100393.22;5015818;28;20220;-73
2022/08/20 01:28:42;;;;;;;16.87;10.53;;;;;;;19.40;100.00;100392.41;5013428;28;20271;-72
2022/08/20 01:31:12;;;;;;;16.67;11.83;;;;;;;19.40;100.00;100391.53;5023061;28;20192;-72
2022/08/20 01:33:39;;;;;;;20.70;11.10;;;;;;;19.36;100.00;100398.81;5012715;28;20225;-73
2022/08/20 01:36:07;;;;;;;18.70;12.20;;;;;;;19.34;100.00;100400.72;5027058;28;20203;-73
2022/08/20 01:38:34;;;;;;;18.47;11.30;;;;;;;19.34;100.00;100403.34;5009343;28;20204;-72
2022/08/20 01:41:23;;;;;;;17.67;11.30;;;;;;;19.34;100.00;100398.06;5017336;28;20197;-72
2022/08/20 01:43:55;;;;;;;18.03;11.10;;;;;;;19.33;100.00;100399.03;5024280;28;20228;-73
2022/08/20 01:46:24;;;;;;;17.40;11.63;;;;;;;19.34;100.00;100403.34;5022721;28;20211;-72
2022/08/20 01:48:51;;;;;;;19.93;12.07;;;;;;;19.35;100.00;100401.56;5009565;28;20798;-72
2022/08/20 01:51:23;;;;;;;21.13;11.63;;;;;;;19.37;100.00;100408.44;5036410;28;20657;-72
2022/08/20 01:53:52;;;;;;;17.73;11.37;;;;;;;19.36;100.00;100414.66;5019180;28;20216;-72
2022/08/20 01:56:23;;;;;;;18.23;11.57;;;;;;;19.38;100.00;100410.13;5019895;28;20348;-72
2022/08/20 01:58:53;;;;;;;18.87;10.87;;;;;;;19.39;100.00;100413.63;5026230;28;20192;-72
2022/08/20 02:01:24;;;;;;;18.47;11.53;;;;;;;19.40;100.00;100416.19;5019128;28;20228;-72
2022/08/20 02:03:51;;;;;;;22.07;12.23;;;;;;;19.39;100.00;100416.28;5015500;28;20263;-72
2022/08/20 02:06:18;;;;;;;19.27;12.23;;;;;;;19.39;100.00;100405.72;5019112;28;20211;-72
2022/08/20 02:08:44;;;;;;;17.17;11.10;;;;;;;19.39;100.00;100403.06;5008037;28;20209;-72
2022/08/20 02:11:11;;;;;;;20.07;12.40;;;;;;;19.36;100.00;100403.25;5011131;28;20193;-72
2022/08/20 02:13:40;;;;;;;17.63;11.23;;;;;;;19.36;100.00;100403.25;5021471;28;20323;-72
2022/08/20 02:16:06;;;;;;;20.93;11.93;;;;;;;19.35;100.00;100402.44;5025370;28;20188;-72
2022/08/20 02:18:33;;;;;;;16.67;11.13;;;;;;;19.37;100.00;100397.88;5019620;28;20200;-72
2022/08/20 02:20:59;;;;;;;19.97;12.50;;;;;;;19.37;100.00;100397.88;5025785;28;20202;-72
2022/08/20 02:23:26;;;;;;;19.63;12.33;;;;;;;19.38;100.00;100409.28;5018275;28;20946;-72
2022/08/20 02:25:52;;;;;;;20.00;12.40;;;;;;;19.39;100.00;100406.53;5016793;28;20197;-72
2022/08/20 02:28:19;;;;;;;21.63;12.43;;;;;;;19.41;100.00;100409.94;5025541;28;20207;-72
2022/08/20 02:30:51;;;;;;;19.03;11.27;;;;;;;19.42;100.00;100406.34;5025103;28;20215;-72
2022/08/20 02:33:20;;;;;;;22.13;12.83;;;;;;;19.42;100.00;100416.09;5019783;28;20234;-72
2022/08/20 02:35:49;;;;;;;20.87;12.37;;;;;;;19.39;100.00;100405.72;5029463;28;20211;-72
2022/08/20 02:38:16;;;;;;;18.87;11.80;;;;;;;19.39;100.00;100403.91;5016050;28;20192;-72
2022/08/20 02:40:44;;;;;;;21.43;12.73;;;;;;;19.34;100.00;100403.34;5021485;28;20688;-72
2022/08/20 02:43:13;;;;;;;19.67;11.97;;;;;;;19.29;100.00;100401.03;5026560;28;20199;-72
2022/08/20 02:45:43;;;;;;;19.57;11.47;;;;;;;19.27;100.00;100394.16;5025713;28;20211;-72
2022/08/20 02:48:19;;;;;;;19.70;12.40;;;;;;;19.27;100.00;100394.97;5019615;28;20475;-72
2022/08/20 02:50:47;;;;;;;18.57;11.67;;;;;;;19.30;100.00;100393.94;5022712;28;20198;-72
2022/08/20 02:53:14;;;;;;;19.07;11.87;;;;;;;19.33;100.00;100388.47;5027681;28;20684;-72
2022/08/20 02:55:41;;;;;;;19.20;11.83;;;;;;;19.34;100.00;100384.03;5026829;28;20293;-72
2022/08/20 02:58:07;;;;;;;20.97;12.07;;;;;;;19.33;100.00;100392.88;5020479;28;20590;-72
2022/08/20 03:00:34;;;;;;;20.17;11.93;;;;;;;19.32;100.00;100396.50;5024076;28;20200;-72
2022/08/20 03:03:01;;;;;;;21.87;12.20;;;;;;;19.30;100.00;100386.84;5033152;28;20212;-72
2022/08/20 03:05:29;;;;;;;23.70;12.50;;;;;;;19.29;100.00;100386.97;5027006;28;20229;-72
2022/08/20 03:07:56;;;;;;;20.67;12.10;;;;;;;19.28;100.00;100386.13;5021565;28;20204;-72
2022/08/20 03:10:23;;;;;;;18.13;11.13;;;;;;;19.23;100.00;100385.56;5019786;28;20684;-72
2022/08/20 03:12:51;;;;;;;18.47;11.07;;;;;;;19.19;100.00;100384.09;5018305;28;20274;-72
2022/08/20 03:15:19;;;;;;;20.47;12.00;;;;;;;19.16;100.00;100380.81;5023028;28;20210;-72
2022/08/20 03:17:46;;;;;;;19.90;10.93;;;;;;;19.16;100.00;100379.00;5019870;28;20292;-72
2022/08/20 03:20:13;;;;;;;15.73;10.30;;;;;;;19.17;100.00;100374.56;5021402;28;20196;-72
2022/08/20 03:22:41;;;;;;;16.73;10.60;;;;;;;19.16;100.00;100371.06;5019822;28;20192;-72
2022/08/20 03:25:08;;;;;;;16.30;9.73;;;;;;;19.17;100.00;100374.56;5030230;28;20228;-72
2022/08/20 03:27:34;;;;;;;16.27;9.97;;;;;;;19.18;100.00;100371.81;5020486;28;20213;-72
2022/08/20 03:30:00;;;;;;;14.23;9.73;;;;;;;19.19;100.00;100364.72;5020208;28;20201;-72
2022/08/20 03:32:27;;;;;;;14.90;9.27;;;;;;;19.20;100.00;100369.06;5017628;28;20223;-72
2022/08/20 03:34:54;;;;;;;17.03;9.70;;;;;;;19.21;100.00;100365.50;5017024;28;20595;-72
2022/08/20 03:37:20;;;;;;;16.27;10.37;;;;;;;19.21;100.00;100371.63;5023885;28;20558;-72
2022/08/20 03:39:48;;;;;;;16.53;10.17;;;;;;;19.18;100.00;100365.69;5022558;28;20564;-72
2022/08/20 03:42:14;;;;;;;16.00;9.83;;;;;;;19.14;100.00;100361.53;5024384;28;20195;-72
2022/08/20 03:44:40;;;;;;;15.13;9.17;;;;;;;19.14;100.00;100362.41;5014580;28;20232;-72
2022/08/20 03:47:08;;;;;;;14.97;9.40;;;;;;;19.09;100.00;100365.34;5021811;28;20206;-72
2022/08/20 03:49:35;;;;;;;11.70;8.23;;;;;;;19.09;100.00;100370.63;5017143;28;20585;-72
2022/08/20 03:52:02;;;;;;;13.60;8.67;;;;;;;19.08;100.00;100370.72;5020479;28;20196;-72
2022/08/20 03:54:29;;;;;;;11.60;7.67;;;;;;;19.05;100.00;100369.16;5017665;28;20778;-72
2022/08/20 03:56:56;;;;;;;11.97;7.90;;;;;;;19.08;100.00;100366.31;5019541;28;20289;-72
2022/08/20 03:59:23;;;;;;;13.60;8.47;;;;;;;19.08;100.00;100368.06;5020239;28;20205;-72
2022/08/20 04:01:49;;;;;;;12.17;7.73;;;;;;;19.08;100.00;100376.88;5020538;28;20197;-72
2022/08/20 04:04:16;;;;;;;13.07;7.97;;;;;;;19.10;100.00;100384.66;5027145;28;20218;-72
2022/08/20 04:06:42;;;;;;;12.87;7.97;;;;;;;19.08;100.00;100384.81;5020419;28;20621;-72
2022/08/20 04:09:09;;;;;;;14.57;8.37;;;;;;;19.08;100.00;100384.81;5021910;28;20204;-72
2022/08/20 04:11:36;;;;;;;13.30;8.13;;;;;;;19.09;100.00;100388.28;5028124;28;20195;-72
2022/08/20 04:14:04;;;;;;;14.70;8.07;;;;;;;19.06;100.00;100393.75;5013770;28;20220;-72
2022/08/20 04:16:31;;;;;;;15.77;8.67;;;;;;;19.06;100.00;100399.03;5022119;28;20200;-72
2022/08/20 04:18:58;;;;;;;12.03;7.77;;;;;;;19.03;100.00;100391.31;5022235;28;20207;-72
2022/08/20 04:21:24;;;;;;;13.13;7.43;;;;;;;19.04;100.00;100395.66;5017285;28;20214;-72
2022/08/20 04:23:51;;;;;;;14.17;8.00;;;;;;;19.01;100.00;100388.75;5014295;28;20217;-72
2022/08/20 04:26:18;;;;;;;13.57;8.00;;;;;;;18.99;100.00;100384.53;5019554;28;20683;-72
2022/08/20 04:28:45;;;;;;;10.93;6.83;;;;;;;18.97;100.00;100384.63;5027950;28;20207;-72
2022/08/20 04:31:13;;;;;;;12.27;7.67;;;;;;;18.95;100.00;100393.63;5022559;28;20195;-72
2022/08/20 04:33:41;;;;;;;10.37;7.13;;;;;;;18.92;100.00;100389.38;5019576;28;20270;-72
2022/08/20 04:36:08;;;;;;;9.80;6.80;;;;;;;18.91;100.00;100390.34;5029822;28;20581;-72
2022/08/20 04:38:35;;;;;;;10.10;7.10;;;;;;;18.91;100.00;100396.47;5026842;28;20793;-72
2022/08/20 04:41:01;;;;;;;8.53;5.90;;;;;;;18.96;100.00;100395.31;5016194;28;20521;-72
2022/08/20 04:43:29;;;;;;;10.03;6.47;;;;;;;18.88;100.00;100394.00;5027240;28;20593;-72
2022/08/20 04:45:57;;;;;;;10.40;6.33;;;;;;;18.89;100.00;100387.78;5025237;28;20193;-71
2022/08/20 04:48:27;;;;;;;9.93;6.43;;;;;;;18.89;100.00;100397.47;5022732;28;20274;-71
2022/08/20 04:50:55;;;;;;;7.80;5.73;;;;;;;18.89;100.00;100392.19;5020406;28;20204;-71
2022/08/20 04:53:25;;;;;;;8.10;5.17;;;;;;;18.82;100.00;100398.81;5030461;28;20235;-71
2022/08/20 04:55:53;;;;;;;6.17;4.30;;;;;;;18.79;100.00;100402.50;5021861;28;20197;-71
2022/08/20 04:58:22;;;;;;;5.17;4.10;;;;;;;18.80;100.00;100403.34;5022585;28;20602;-72
2022/08/20 05:00:51;;;;;;;5.47;3.93;;;;;;;18.73;100.00;100409.03;5020889;28;20203;-72
2022/08/20 05:03:18;;;;;;;7.13;4.60;;;;;;;18.70;100.00;100409.22;5018487;28;20940;-72
2022/08/20 05:05:46;;;;;;;6.10;3.70;;;;;;;18.68;100.00;100408.47;5024444;28;20282;-72
2022/08/20 05:08:15;;;;;;;6.87;4.17;;;;;;;18.71;100.00;100416.19;5017486;28;20203;-71
2022/08/20 05:10:42;;;;;;;6.40;3.53;;;;;;;18.76;100.00;100418.53;5030250;28;20204;-71
2022/08/20 05:13:09;;;;;;;5.40;3.97;;;;;;;18.74;100.00;100420.44;5020140;28;20212;-71
2022/08/20 05:15:37;;;;;;;5.27;4.00;;;;;;;18.80;100.00;100424.47;5027808;28;20191;-71
2022/08/20 05:18:06;;;;;;;6.27;3.73;;;;;;;18.81;100.00;100429.66;5021400;28;20199;-71
2022/08/20 05:20:39;;;;;;;5.90;4.03;;;;;;;18.79;100.00;100428.06;5019253;28;20306;-71
2022/08/20 05:23:08;;;;;;;5.60;4.30;;;;;;;18.78;100.00;100429.84;5023469;28;20189;-71
2022/08/20 05:25:35;;;;;;;4.83;3.20;;;;;;;18.82;100.00;100425.25;5021482;28;20200;-72
2022/08/20 05:28:04;;;;;;;4.63;3.43;;;;;;;18.83;100.00;100434.88;5023660;28;20660;-71
2022/08/20 05:30:32;;;;;;;3.93;3.07;;;;;;;18.82;100.00;100430.53;5015827;28;20283;-71
2022/08/20 05:32:58;;;;;;;3.97;3.07;;;;;;;18.83;100.00;100434.88;5028341;28;20235;-71
2022/08/20 05:35:26;;;;;;;3.60;2.47;;;;;;;18.84;100.00;100439.22;5020166;28;20200;-71
2022/08/20 05:37:53;;;;;;;6.13;2.40;;;;;;;18.79;100.00;100442.09;5019841;28;20204;-71
2022/08/20 05:40:21;;;;;;;3.60;2.83;;;;;;;18.80;100.00;100435.88;5023535;28;20203;-71
2022/08/20 05:42:48;;;;;;;3.30;2.50;;;;;;;18.81;100.00;100442.03;5029163;28;20292;-71
2022/08/20 05:45:17;;;;;;;3.83;2.60;;;;;;;18.80;100.00;100435.03;5035325;28;20221;-71
2022/08/20 05:47:44;;;;;;;4.07;3.00;;;;;;;18.80;100.00;100435.88;5023442;28;20193;-71
2022/08/20 05:50:12;;;;;;;3.00;2.57;;;;;;;18.83;100.00;100440.16;5022208;28;20258;-71
2022/08/20 05:52:39;;;;;;;3.37;2.80;;;;;;;18.81;100.00;100449.94;5017233;28;20742;-71
2022/08/20 05:55:08;;;;;;;5.03;4.03;;;;;;;18.77;100.00;100444.00;5023442;28;20689;-71
2022/08/20 05:57:36;;;;;;;4.87;3.70;;;;;;;18.79;100.00;100451.84;5025157;28;20689;-72
2022/08/20 06:00:06;;;;;;;6.17;4.87;;;;;;;18.72;100.00;100440.81;5036737;28;20624;-72
2022/08/20 06:05:22;;;;;;;7.37;4.80;;;;;;;18.74;100.00;100450.31;5023320;28;20283;-72
2022/08/20 06:07:49;;;;;;;10.40;7.23;;;;;;;18.74;100.00;100454.75;5022366;28;20224;-70
2022/08/20 06:10:17;;;;;;;7.33;5.70;;;;;;;18.69;100.00;100452.38;5017666;28;20298;-72
2022/08/20 06:12:45;;;;;;;8.17;6.70;;;;;;;18.68;100.00;100457.75;5026467;28;20223;-71
2022/08/20 06:15:12;;;;;;;11.37;6.63;;;;;;;18.65;100.00;100455.34;5025813;28;20680;-72
2022/08/20 06:17:39;;;;;;;8.53;6.87;;;;;;;18.64;100.00;100454.47;5039238;28;20199;-72
2022/08/20 06:20:08;;;;;;;9.43;6.47;;;;;;;18.65;100.00;100458.81;5025281;28;20192;-70
2022/08/20 06:22:36;;;;;;;7.13;5.87;;;;;;;18.64;100.00;100462.38;5035606;28;20204;-72
2022/08/20 06:25:05;;;;;;;8.27;5.93;;;;;;;18.62;100.00;100461.66;5034371;28;20301;-72
2022/08/20 06:27:31;;;;;;;8.63;6.33;;;;;;;18.61;100.00;100467.00;5018393;28;20672;-72
2022/08/20 06:30:00;;;;;;;7.30;6.13;;;;;;;18.58;100.00;100462.78;5018699;28;20209;-71
2022/08/20 06:32:26;;;;;;;8.83;5.90;;;;;;;18.63;100.00;100462.50;5018178;28;20230;-72
2022/08/20 06:34:53;;;;;;;9.67;6.23;;;;;;;18.60;100.00;100471.47;5016845;28;20346;-72
2022/08/20 06:37:22;;;;;;;7.43;6.30;;;;;;;18.62;100.00;100471.38;5041206;28;20207;-72
2022/08/20 06:39:49;;;;;;;9.13;6.40;;;;;;;18.56;100.00;100472.59;5047412;28;20199;-71
2022/08/20 06:42:16;;;;;;;11.13;6.97;;;;;;;18.56;100.00;100475.25;5042920;28;20202;-71
2022/08/20 06:44:47;;;;;;;9.10;6.53;;;;;;;18.50;100.00;100473.84;5045388;22;20227;-73
2022/08/20 06:47:15;;;;;;;8.73;6.80;;;;;;;18.49;100.00;100479.22;5048119;28;20245;-73
2022/08/20 06:49:41;;;;;;;9.10;7.00;;;;;;;18.53;100.00;100476.25;5049062;28;20199;-73
2022/08/20 06:52:08;;;;;;;9.23;7.23;;;;;;;18.53;100.00;100468.34;5050142;28;20199;-73
2022/08/20 06:54:35;;;;;;;10.30;7.60;;;;;;;18.51;100.00;100479.94;5046363;28;20249;-73
2022/08/20 06:57:01;;;;;;;10.80;7.27;;;;;;;18.47;100.00;100489.84;5044193;28;20217;-74
2022/08/20 06:59:28;;;;;;;10.60;7.53;;;;;;;18.48;100.00;100491.53;5040605;28;20196;-73
2022/08/20 07:01:55;;;;;;;11.13;7.30;;;;;;;18.49;100.00;100490.59;5044010;28;20207;-73
2022/08/20 07:04:24;;;;;;;10.00;7.10;;;;;;;18.46;100.00;100489.94;5041642;28;20224;-74
2022/08/20 07:06:51;;;;;;;9.40;6.53;;;;;;;18.43;100.00;100496.25;5040964;28;20233;-74
2022/08/20 07:09:17;;;;;;;11.17;7.33;;;;;;;18.45;100.00;100494.38;5044056;28;20199;-73
2022/08/20 07:11:44;;;;;;;9.00;6.80;;;;;;;18.47;100.00;100494.28;5038127;28;20280;-74
2022/08/20 07:14:10;;;;;;;10.10;7.37;;;;;;;18.50;100.00;100494.94;5039776;28;20227;-73
2022/08/20 07:16:37;;;;;;;10.43;7.23;;;;;;;18.55;100.00;100486.72;5040558;28;20292;-73
2022/08/20 07:19:04;;;;;;;9.93;7.47;;;;;;;18.57;100.00;100490.13;5042394;28;20203;-73
2022/08/20 07:21:32;;;;;;;9.63;6.73;;;;;;;18.50;100.00;100488.81;5040613;28;20196;-73
2022/08/20 07:23:58;;;;;;;9.97;7.63;;;;;;;18.51;100.00;100495.78;5038717;28;20223;-73
2022/08/20 07:26:25;;;;;;;9.53;6.80;;;;;;;18.58;100.00;100501.56;5042956;28;20211;-73
2022/08/20 07:28:52;;;;;;;10.00;7.57;;;;;;;18.57;100.00;100495.41;5048603;28;20205;-73
2022/08/20 07:34:02;;;;;;;11.93;8.67;;;;;;;18.53;100.00;100510.59;5046819;28;20219;-73
2022/08/20 07:36:28;;;;;;;16.40;8.87;;;;;;;18.53;100.00;100512.38;5050383;28;20195;-73
2022/08/20 07:38:56;;;;;;;10.93;8.60;;;;;;;18.53;100.00;100521.13;5053791;28;20199;-73
2022/08/20 07:41:22;;;;;;;11.97;7.87;;;;;;;18.53;100.00;100517.66;5047638;28;20442;-73
2022/08/20 07:43:49;;;;;;;12.57;8.70;;;;;;;18.51;100.00;100527.47;5043436;28;20227;-73
2022/08/20 07:46:18;;;;;;;13.47;9.30;;;;;;;18.50;100.00;100518.72;5050707;28;20199;-73
2022/08/20 07:48:48;;;;;;;14.17;8.50;;;;;;;18.49;100.00;100518.81;5048319;28;20199;-72
2022/08/20 07:51:17;;;;;;;13.07;8.80;;;;;;;18.47;100.00;100523.34;5043233;28;20200;-73
2022/08/20 07:53:46;;;;;;;14.40;9.27;;;;;;;18.50;100.00;100523.13;5043467;28;20219;-73
2022/08/20 07:56:15;;;;;;;14.83;9.80;;;;;;;18.50;100.00;100517.84;5038190;28;20250;-73
2022/08/20 07:58:46;;;;;;;14.23;9.40;;;;;;;18.52;100.00;100527.38;5039557;28;20196;-73
2022/08/20 08:01:12;;;;;;;14.27;9.17;;;;;;;18.48;100.00;100522.38;5042734;28;20286;-74
2022/08/20 08:03:38;;;;;;;13.97;10.17;;;;;;;18.48;100.00;100523.22;5046176;28;20274;-73
2022/08/20 08:06:05;;;;;;;17.20;11.33;;;;;;;18.47;100.00;100520.69;5045113;28;20199;-73
2022/08/20 08:08:33;;;;;;;15.73;9.83;;;;;;;18.50;100.00;100526.63;5040106;28;20199;-73
2022/08/20 08:11:02;;;;;;;16.00;10.60;;;;;;;18.51;100.00;100524.84;5043730;28;20661;-73
2022/08/20 08:13:34;;;;;;;14.17;10.07;;;;;;;18.58;100.00;100523.50;5042992;28;20218;-73
2022/08/20 08:16:02;;;;;;;17.93;10.90;;;;;;;18.57;100.00;100526.25;5040933;28;20571;-73
2022/08/20 08:18:35;;;;;;;16.17;10.20;;;;;;;18.63;100.00;100534.66;5042237;28;20207;-73
2022/08/20 08:21:02;;;;;;;15.57;10.53;;;;;;;18.65;100.00;100535.41;5042009;28;20206;-73
2022/08/20 08:23:28;;;;;;;15.20;10.10;;;;;;;18.78;100.00;100542.56;5040505;28;20205;-74
2022/08/20 08:25:55;;;;;;;16.10;10.50;;;;;;;18.81;100.00;100547.66;5045551;28;20206;-73
2022/08/20 08:28:21;;;;;;;15.93;10.33;;;;;;;18.83;100.00;100543.16;5043706;28;20206;-74
2022/08/20 08:30:49;;;;;;;16.27;11.20;;;;;;;18.91;100.00;100540.91;5042772;28;20249;-74
2022/08/20 08:33:31;;;;;;;17.37;12.17;;;;;;;18.95;100.00;100544.19;5039542;28;20192;-74
2022/08/20 08:36:01;;;;;;;18.00;11.07;;;;;;;18.91;100.00;100546.19;5044682;28;20199;-74
2022/08/20 08:38:28;;;;;;;17.97;12.03;;;;;;;18.92;100.00;100553.16;5038039;28;20203;-74
2022/08/20 08:40:57;;;;;;;19.53;11.10;;;;;;;18.96;100.00;100549.38;5042474;28;20203;-74
2022/08/20 08:43:26;;;;;;;18.50;11.70;;;;;;;19.00;100.00;100545.59;5041191;28;20221;-74
2022/08/20 08:46:00;;;;;;;15.93;10.93;;;;;;;19.11;100.00;100556.31;5037516;28;20686;-74
2022/08/20 08:48:33;;;;;;;19.67;11.83;;;;;;;19.09;100.00;100560.88;5043998;28;20222;-74
2022/08/20 08:51:02;;;;;;;17.10;11.50;;;;;;;19.08;100.00;100559.19;5040196;28;20207;-74
2022/08/20 08:53:35;;;;;;;16.07;10.23;;;;;;;19.08;100.00;100559.19;5042776;28;20535;-74
2022/08/20 08:56:01;;;;;;;17.33;11.07;;;;;;;19.08;100.00;100558.31;5043246;28;20201;-74
2022/08/20 08:58:28;;;;;;;19.47;11.90;;;;;;;19.06;100.00;100566.34;5040237;28;20223;-74
2022/08/20 09:00:55;;;;;;;17.30;11.63;;;;;;;19.08;100.00;100558.31;5044133;28;20659;-74
2022/08/20 09:03:28;;;;;;;18.20;12.20;;;;;;;19.11;100.00;100571.34;5038620;28;20636;-74
2022/08/20 09:05:57;;;;;;;21.63;12.27;;;;;;;19.08;100.00;100569.75;5039626;28;20208;-74
2022/08/20 09:08:27;;;;;;;18.33;12.30;;;;;;;19.09;100.00;100571.44;5035211;28;20742;-74
2022/08/20 09:10:54;;;;;;;16.93;11.20;;;;;;;19.13;100.00;100571.25;5041820;28;20230;-75
2022/08/20 09:13:21;;;;;;;18.50;11.10;;;;;;;19.15;100.00;100572.84;5035925;28;20234;-74
2022/08/20 09:15:47;;;;;;;20.50;12.53;;;;;;;19.16;100.00;100576.34;5038301;28;20223;-74
2022/08/20 09:18:15;;;;;;;19.27;12.20;;;;;;;19.14;100.00;100568.50;5037802;28;20817;-74
2022/08/20 09:20:41;;;;;;;18.20;12.37;;;;;;;19.08;100.00;100574.16;5036071;28;20221;-74
2022/08/20 09:23:08;;;;;;;17.53;11.70;;;;;;;19.09;100.00;100576.72;5031608;28;20191;-74
2022/08/20 09:25:34;;;;;;;16.80;11.97;;;;;;;19.05;100.00;100566.44;5045472;28;20218;-74
2022/08/20 09:28:01;;;;;;;17.30;11.17;;;;;;;19.04;100.00;100575.31;5042324;28;20195;-74
2022/08/20 09:30:28;;;;;;;17.63;12.33;;;;;;;19.07;100.00;100573.31;5038394;28;20219;-74
2022/08/20 09:32:54;;;;;;;17.73;12.30;;;;;;;19.07;100.00;100565.41;5040837;28;20214;-74
2022/08/20 09:35:22;;;;;;;18.60;11.90;;;;;;;19.08;100.00;100564.47;5042185;28;20232;-74
2022/08/20 09:37:48;;;;;;;19.13;12.80;;;;;;;19.13;100.00;100566.81;5039536;28;20200;-74
2022/08/20 09:40:15;;;;;;;19.70;12.93;;;;;;;19.09;100.00;100562.66;5039491;28;20200;-74
2022/08/20 09:42:41;;;;;;;19.87;13.50;;;;;;;19.09;100.00;100560.88;5038396;28;20207;-74
2022/08/20 09:45:09;;;;;;;21.17;12.87;;;;;;;19.16;100.00;100561.34;5041261;28;20261;-74
2022/08/20 09:47:36;;;;;;;21.50;13.20;;;;;;;19.17;100.00;100559.53;5042779;28;20685;-74
2022/08/20 09:50:04;;;;;;;21.20;12.80;;;;;;;19.18;100.00;100563.88;5037087;28;20867;-74
2022/08/20 09:52:34;;;;;;;18.70;12.53;;;;;;;19.17;100.00;100555.13;5045817;28;20566;-74
2022/08/20 09:55:04;;;;;;;18.13;12.40;;;;;;;19.23;100.00;100552.06;5044347;28;20230;-74
2022/08/20 09:57:31;;;;;;;20.40;13.47;;;;;;;19.24;100.00;100550.25;5037947;28;20195;-74
2022/08/20 10:00:00;;;;;;;20.13;13.93;;;;;;;19.41;100.00;100551.84;5049785;28;20206;-74
2022/08/20 10:02:27;;;;;;;21.90;13.70;;;;;;;19.46;100.00;100555.03;5040125;28;20218;-74
2022/08/20 10:04:53;;;;;;;24.30;14.63;;;;;;;19.57;100.00;100543.75;5046002;28;20605;-74
2022/08/20 10:07:19;;;;;;;28.90;16.00;;;;;;;19.72;100.00;100555.13;5046920;28;20238;-74
2022/08/20 10:09:47;;;;;;;27.10;15.33;;;;;;;19.71;100.00;100554.28;5037594;28;20718;-74
2022/08/20 10:12:14;;;;;;;24.03;14.63;;;;;;;19.69;100.00;100556.19;5039623;28;20217;-74
2022/08/20 10:14:40;;;;;;;20.40;13.57;;;;;;;19.55;100.00;100565.00;5038734;28;20215;-74
2022/08/20 10:17:07;;;;;;;17.53;12.60;;;;;;;19.50;100.00;100559.19;5039011;28;20203;-73
2022/08/20 10:19:33;;;;;;;17.80;12.73;;;;;;;19.39;100.00;100559.88;5045753;28;20578;-74
2022/08/20 10:22:00;;;;;;;19.10;12.50;;;;;;;19.40;100.00;100556.28;5045026;28;20684;-73
2022/08/20 10:24:27;;;;;;;16.63;11.70;;;;;;;19.42;100.00;100559.69;5048580;28;20215;-73
2022/08/20 10:26:57;;;;;;;16.10;11.13;;;;;;;19.41;100.00;100559.78;5044738;28;20203;-74
2022/08/20 10:29:23;;;;;;;17.90;12.73;;;;;;;19.45;100.00;100566.56;5038012;28;20578;-74
2022/08/20 10:31:50;;;;;;;17.63;12.03;;;;;;;19.45;100.00;100551.56;5044874;28;20199;-74
2022/08/20 10:34:17;;;;;;;19.30;12.40;;;;;;;19.50;100.00;100561.81;5044423;28;20245;-74
2022/08/20 10:36:43;;;;;;;19.73;11.63;;;;;;;19.51;100.00;100552.06;5050026;28;20614;-74
2022/08/20 10:39:10;;;;;;;18.67;11.80;;;;;;;19.47;100.00;100562.00;5049599;28;20635;-74
2022/08/20 10:41:36;;;;;;;16.93;11.93;;;;;;;19.56;100.00;100557.91;5044830;28;20673;-74
2022/08/20 10:44:05;;;;;;;21.10;12.47;;;;;;;19.50;100.00;100548.59;5044743;28;20231;-74
2022/08/20 10:46:31;;;;;;;19.40;12.90;;;;;;;19.53;100.00;100558.97;5045324;28;20206;-74
2022/08/20 10:48:58;;;;;;;17.67;12.53;;;;;;;19.47;100.00;100562.00;5047761;28;20195;-74
2022/08/20 10:51:24;;;;;;;20.77;12.67;;;;;;;19.47;100.00;100564.66;5046707;28;20203;-74
2022/08/20 10:53:50;;;;;;;18.63;12.13;;;;;;;19.46;100.00;100562.97;5047977;28;20233;-73
2022/08/20 10:56:17;;;;;;;16.33;11.83;;;;;;;19.50;100.00;100567.09;5049347;28;20255;-73
2022/08/20 10:58:43;;;;;;;16.97;11.87;;;;;;;19.41;100.00;100567.72;5048547;28;20203;-73
2022/08/20 11:01:11;;;;;;;21.97;13.10;;;;;;;19.46;100.00;100568.25;5042335;28;20196;-74
2022/08/20 11:03:37;;;;;;;17.03;12.33;;;;;;;19.37;100.00;100568.84;5043474;28;20214;-73
2022/08/20 11:06:04;;;;;;;18.63;12.47;;;;;;;19.36;100.00;100572.44;5042500;28;20660;-73
2022/08/20 11:08:31;;;;;;;18.17;12.33;;;;;;;19.35;100.00;100568.09;5039885;28;20204;-73
2022/08/20 11:10:57;;;;;;;18.67;12.40;;;;;;;19.35;100.00;100574.25;5042693;28;20202;-73
2022/08/20 11:13:24;;;;;;;16.53;12.10;;;;;;;19.34;100.00;100572.53;5041519;28;20219;-73
2022/08/20 11:15:50;;;;;;;18.00;11.70;;;;;;;19.37;100.00;100582.06;5047080;28;20226;-73